createdAt,value
2022-09-11T00:01:40.374Z,4.37
2022-09-11T00:04:07.983Z,4.13
2022-09-11T00:06:35.133Z,4.10
2022-09-11T00:09:04.479Z,3.97
2022-09-11T00:11:42.250Z,4.43
2022-09-11T00:14:10.362Z,3.93
2022-09-11T00:16:39.145Z,3.80
2022-09-11T00:19:11.713Z,3.90
2022-09-11T00:21:39.358Z,3.90
2022-09-11T00:24:09.870Z,4.10
2022-09-11T00:26:37.400Z,3.90
2022-09-11T00:29:05.060Z,3.77
2022-09-11T00:31:32.568Z,3.43
2022-09-11T00:34:00.310Z,3.93
2022-09-11T00:36:36.276Z,4.00
2022-09-11T00:39:04.128Z,3.77
2022-09-11T00:41:38.608Z,3.90
2022-09-11T00:44:28.580Z,3.50
2022-09-11T00:46:57.501Z,3.73
2022-09-11T00:49:28.183Z,3.60
2022-09-11T00:51:56.876Z,3.90
2022-09-11T00:54:32.418Z,4.13
2022-09-11T00:57:01.359Z,3.80
2022-09-11T00:59:29.858Z,3.87
2022-09-11T01:01:57.021Z,4.30
2022-09-11T01:04:24.356Z,4.33
2022-09-11T01:06:53.570Z,3.80
2022-09-11T01:09:20.891Z,4.10
2022-09-11T01:12:09.241Z,3.70
2022-09-11T01:14:45.304Z,3.33
2022-09-11T01:17:31.401Z,3.53
2022-09-11T01:20:07.657Z,3.67
2022-09-11T01:22:55.232Z,3.50
2022-09-11T01:25:22.341Z,3.20
2022-09-11T01:27:51.073Z,3.20
2022-09-11T01:30:24.713Z,3.50
2022-09-11T01:33:11.278Z,3.63
2022-09-11T01:36:13.937Z,3.53
2022-09-11T01:38:47.844Z,3.40
2022-09-11T01:41:15.496Z,3.47
2022-09-11T01:44:07.003Z,3.40
2022-09-11T01:46:38.281Z,3.27
2022-09-11T01:49:15.408Z,3.70
2022-09-11T01:51:42.532Z,3.50
2022-09-11T01:54:11.787Z,3.50
2022-09-11T01:56:42.371Z,3.07
2022-09-11T01:59:11.409Z,3.40
2022-09-11T02:01:42.305Z,3.20
2022-09-11T02:04:11.656Z,3.17
2022-09-11T02:06:43.553Z,3.27
2022-09-11T02:09:12.542Z,3.30
2022-09-11T02:11:41.349Z,3.17
2022-09-11T02:14:32.651Z,3.30
2022-09-11T02:17:05.906Z,3.40
2022-09-11T02:19:33.068Z,3.13
2022-09-11T02:22:00.237Z,3.00
2022-09-11T02:24:28.053Z,3.20
2022-09-11T02:26:58.467Z,3.30
2022-09-11T02:29:26.658Z,3.23
2022-09-11T02:31:54.752Z,3.33
2022-09-11T02:34:29.658Z,3.07
2022-09-11T02:37:03.259Z,3.10
2022-09-11T02:39:49.122Z,3.07
2022-09-11T02:42:31.117Z,2.90
2022-09-11T02:45:17.022Z,3.00
2022-09-11T02:47:50.353Z,3.00
2022-09-11T02:50:18.395Z,3.20
2022-09-11T02:52:58.756Z,2.87
2022-09-11T02:55:30.823Z,2.77
2022-09-11T02:58:03.813Z,2.80
2022-09-11T03:00:30.953Z,2.87
2022-09-11T03:02:58.415Z,3.13
2022-09-11T03:05:25.589Z,3.20
2022-09-11T03:07:52.674Z,3.03
2022-09-11T03:10:19.784Z,3.10
2022-09-11T03:12:46.935Z,2.90
2022-09-11T03:15:14.110Z,2.87
2022-09-11T03:17:41.416Z,2.80
2022-09-11T03:20:08.885Z,2.70
2022-09-11T03:22:36.052Z,2.87
2022-09-11T03:25:03.806Z,2.90
2022-09-11T03:27:30.957Z,2.87
2022-09-11T03:29:58.647Z,3.20
2022-09-11T03:32:25.804Z,3.00
2022-09-11T03:34:52.995Z,3.10
2022-09-11T03:37:20.307Z,3.17
2022-09-11T03:39:48.281Z,3.30
2022-09-11T03:42:15.918Z,3.10
2022-09-11T03:44:43.867Z,3.40
2022-09-11T03:47:11.902Z,3.23
2022-09-11T03:49:39.230Z,3.40
2022-09-11T03:52:06.386Z,3.40
2022-09-11T03:54:34.354Z,3.33
2022-09-11T03:57:01.742Z,3.17
2022-09-11T03:59:29.175Z,3.87
2022-09-11T04:01:56.344Z,3.40
2022-09-11T04:04:23.531Z,3.07
2022-09-11T04:06:50.648Z,3.43
2022-09-11T04:09:17.867Z,3.70
2022-09-11T04:11:45.004Z,3.20
2022-09-11T04:14:12.274Z,3.50
2022-09-11T04:16:39.423Z,3.67
2022-09-11T04:19:06.728Z,3.40
2022-09-11T04:21:34.763Z,3.53
2022-09-11T04:24:01.993Z,3.80
2022-09-11T04:26:30.566Z,3.60
2022-09-11T04:28:58.809Z,3.60
2022-09-11T04:31:27.613Z,3.50
2022-09-11T04:33:57.695Z,3.60
2022-09-11T04:36:27.005Z,3.83
2022-09-11T04:38:57.969Z,3.70
2022-09-11T04:41:25.397Z,3.40
2022-09-11T04:43:59.132Z,3.47
2022-09-11T04:46:29.975Z,3.70
2022-09-11T04:49:02.241Z,3.43
2022-09-11T04:51:31.008Z,3.60
2022-09-11T04:53:58.903Z,3.60
2022-09-11T04:56:27.017Z,3.60
2022-09-11T04:58:55.356Z,3.30
2022-09-11T05:01:22.975Z,3.47
2022-09-11T05:03:50.164Z,3.60
2022-09-11T05:06:17.333Z,3.73
2022-09-11T05:08:45.367Z,3.60
2022-09-11T05:11:13.810Z,3.53
2022-09-11T05:13:41.650Z,3.87
2022-09-11T05:16:10.898Z,3.70
2022-09-11T05:18:38.497Z,3.90
2022-09-11T05:21:06.733Z,4.47
2022-09-11T05:23:34.208Z,4.00
2022-09-11T05:26:02.340Z,3.83
2022-09-11T05:28:29.808Z,4.20
2022-09-11T05:30:57.649Z,4.00
2022-09-11T05:33:25.349Z,3.80
2022-09-11T05:35:52.835Z,3.87
2022-09-11T05:38:20.195Z,3.70
2022-09-11T05:40:49.263Z,4.00
2022-09-11T05:43:17.409Z,3.80
2022-09-11T05:45:45.854Z,4.30
2022-09-11T05:48:13.575Z,4.00
2022-09-11T05:50:40.804Z,3.87
2022-09-11T05:53:07.905Z,4.20
2022-09-11T05:55:35.569Z,6.33
2022-09-11T05:58:02.871Z,4.17
2022-09-11T06:00:30.424Z,4.13
2022-09-11T06:02:58.987Z,3.80
2022-09-11T06:05:26.176Z,4.50
2022-09-11T06:07:53.364Z,4.30
2022-09-11T06:10:20.528Z,4.10
2022-09-11T06:12:47.609Z,3.97
2022-09-11T06:15:36.353Z,4.40
2022-09-11T06:18:02.035Z,3.80
2022-09-11T06:20:29.129Z,4.03
2022-09-11T06:22:56.583Z,4.00
2022-09-11T06:25:23.890Z,3.83
2022-09-11T06:27:50.988Z,3.63
2022-09-11T06:30:18.232Z,3.70
2022-09-11T06:32:48.797Z,3.80
2022-09-11T06:35:15.892Z,3.97
2022-09-11T06:37:42.970Z,4.00
2022-09-11T06:40:10.960Z,3.90
2022-09-11T06:42:38.963Z,3.87
2022-09-11T06:45:07.228Z,4.07
2022-09-11T06:47:34.377Z,4.20
2022-09-11T06:50:01.488Z,3.97
2022-09-11T06:52:28.648Z,3.50
2022-09-11T06:54:55.766Z,3.83
2022-09-11T06:57:22.873Z,4.27
2022-09-11T06:59:49.989Z,3.60
2022-09-11T07:02:17.217Z,3.73
2022-09-11T07:04:44.355Z,4.23
2022-09-11T07:07:11.496Z,3.83
2022-09-11T07:09:38.653Z,3.60
2022-09-11T07:12:05.901Z,3.83
2022-09-11T07:14:34.212Z,3.40
2022-09-11T07:17:01.364Z,3.30
2022-09-11T07:19:28.708Z,3.20
2022-09-11T07:21:55.825Z,3.20
2022-09-11T07:24:22.956Z,3.60
2022-09-11T07:26:50.306Z,3.30
2022-09-11T07:29:18.432Z,3.30
2022-09-11T07:31:46.531Z,3.80
2022-09-11T07:34:13.627Z,3.40
2022-09-11T07:36:41.669Z,3.40
2022-09-11T07:39:08.989Z,3.17
2022-09-11T07:41:36.121Z,3.40
2022-09-11T07:44:03.779Z,3.27
2022-09-11T07:46:31.215Z,3.37
2022-09-11T07:48:58.996Z,3.27
2022-09-11T07:51:26.872Z,3.10
2022-09-11T07:53:54.442Z,3.20
2022-09-11T07:56:23.837Z,3.30
2022-09-11T07:58:51.852Z,3.40
2022-09-11T08:01:20.064Z,3.60
2022-09-11T08:03:49.231Z,3.10
2022-09-11T08:06:22.093Z,3.30
2022-09-11T08:08:52.486Z,3.20
2022-09-11T08:11:19.741Z,3.60
2022-09-11T08:13:53.143Z,3.20
2022-09-11T08:16:21.608Z,3.00
2022-09-11T08:18:48.763Z,3.27
2022-09-11T08:21:16.283Z,3.30
2022-09-11T08:23:44.524Z,3.20
2022-09-11T08:26:16.334Z,3.30
2022-09-11T08:28:44.976Z,3.00
2022-09-11T08:31:13.278Z,3.20
2022-09-11T08:33:40.993Z,3.20
2022-09-11T08:36:09.772Z,2.93
2022-09-11T08:38:37.787Z,2.57
2022-09-11T08:41:11.202Z,2.60
2022-09-11T08:43:44.578Z,2.60
2022-09-11T08:46:12.802Z,2.57
2022-09-11T08:48:47.683Z,2.20
2022-09-11T08:51:16.184Z,2.20
2022-09-11T08:53:43.840Z,2.10
2022-09-11T08:56:13.047Z,2.10
2022-09-11T08:58:46.615Z,2.10
2022-09-11T09:01:29.117Z,2.00
2022-09-11T09:04:09.953Z,2.20
2022-09-11T09:06:43.909Z,2.13
2022-09-11T09:09:14.035Z,2.10
2022-09-11T09:11:44.053Z,2.20
2022-09-11T09:14:11.217Z,2.10
2022-09-11T09:16:45.412Z,2.13
2022-09-11T09:19:38.671Z,2.10
2022-09-11T09:22:09.081Z,2.00
2022-09-11T09:25:00.149Z,2.03
2022-09-11T09:27:32.205Z,2.00
2022-09-11T09:30:00.656Z,1.77
2022-09-11T09:32:32.267Z,1.80
2022-09-11T09:35:01.550Z,1.70
2022-09-11T09:37:29.121Z,1.57
2022-09-11T09:39:56.520Z,1.50
2022-09-11T09:42:43.913Z,1.53
2022-09-11T09:45:20.292Z,1.77
2022-09-11T09:47:49.023Z,1.90
2022-09-11T09:50:21.252Z,1.80
2022-09-11T09:52:49.543Z,1.60
2022-09-11T09:55:18.562Z,1.90
2022-09-11T09:57:45.799Z,1.83
2022-09-11T10:00:14.318Z,1.80
2022-09-11T10:02:49.167Z,1.70
2022-09-11T10:05:21.649Z,1.80
2022-09-11T10:07:49.596Z,1.90
2022-09-11T10:10:43.136Z,1.80
2022-09-11T10:13:25.043Z,1.50
2022-09-11T10:15:59.891Z,1.80
2022-09-11T10:18:27.148Z,1.80
2022-09-11T10:21:01.747Z,1.80
2022-09-11T10:23:29.992Z,1.60
2022-09-11T10:25:57.139Z,1.70
2022-09-11T10:28:31.109Z,1.70
2022-09-11T10:31:00.158Z,1.73
2022-09-11T10:33:32.077Z,1.70
2022-09-11T10:36:00.606Z,1.50
2022-09-11T10:38:30.812Z,1.57
2022-09-11T10:41:03.831Z,1.60
2022-09-11T10:43:41.514Z,1.50
2022-09-11T10:46:39.636Z,1.50
2022-09-11T10:49:06.809Z,1.50
2022-09-11T10:51:35.362Z,1.60
2022-09-11T10:54:02.508Z,1.40
2022-09-11T10:56:29.813Z,1.50
2022-09-11T10:59:00.516Z,1.50
2022-09-11T11:01:27.669Z,1.67
2022-09-11T11:03:56.220Z,1.50
2022-09-11T11:06:37.162Z,1.60
2022-09-11T11:09:07.394Z,1.53
2022-09-11T11:11:53.247Z,1.70
2022-09-11T11:14:29.493Z,1.70
2022-09-11T11:17:08.512Z,1.50
2022-09-11T11:19:35.669Z,1.50
2022-09-11T11:22:21.997Z,1.88
2022-09-11T11:25:06.525Z,1.88
2022-09-11T11:27:39.712Z,1.80
2022-09-11T11:30:19.373Z,1.58
2022-09-11T11:33:06.872Z,1.90
2022-09-11T11:36:07.144Z,1.80
2022-09-11T11:38:44.817Z,2.10
2022-09-11T11:41:30.263Z,2.03
2022-09-11T11:43:58.999Z,2.00
2022-09-11T11:46:30.121Z,2.58
2022-09-11T11:49:05.996Z,2.63
2022-09-11T11:51:39.613Z,2.58
2022-09-11T11:54:13.242Z,2.63
2022-09-11T11:56:54.833Z,2.33
2022-09-11T11:59:31.265Z,2.05
2022-09-11T12:02:03.814Z,2.20
2022-09-11T12:04:30.937Z,2.33
2022-09-11T12:06:59.557Z,2.10
2022-09-11T12:09:30.368Z,2.25
2022-09-11T12:12:05.256Z,2.10
2022-09-11T12:14:34.181Z,2.00
2022-09-11T12:17:20.848Z,2.20
2022-09-11T12:20:06.715Z,2.30
2022-09-11T12:22:37.801Z,2.10
2022-09-11T12:25:05.437Z,2.10
2022-09-11T12:27:50.699Z,2.17
2022-09-11T12:30:17.804Z,2.13
2022-09-11T12:33:11.274Z,1.83
2022-09-11T12:35:52.821Z,2.00
2022-09-11T12:38:23.182Z,2.00
2022-09-11T12:40:52.775Z,2.00
2022-09-11T12:43:20.605Z,2.20
2022-09-11T12:45:48.397Z,2.00
2022-09-11T12:48:17.105Z,2.20
2022-09-11T12:50:58.009Z,2.25
2022-09-11T12:53:36.456Z,2.13
2022-09-11T12:56:05.041Z,2.10
2022-09-11T12:58:34.714Z,2.00
2022-09-11T13:01:11.743Z,2.05
2022-09-11T13:03:46.715Z,2.10
2022-09-11T13:06:14.379Z,2.10
2022-09-11T13:08:47.299Z,2.15
2022-09-11T13:11:33.324Z,2.13
2022-09-11T13:14:00.474Z,2.35
2022-09-11T13:16:30.953Z,2.20
2022-09-11T13:19:10.364Z,2.00
2022-09-11T13:21:39.010Z,2.20
2022-09-11T13:24:22.832Z,1.83
2022-09-11T13:26:55.206Z,1.88
2022-09-11T13:29:24.895Z,1.90
2022-09-11T13:31:52.120Z,1.90
2022-09-11T13:34:20.388Z,1.90
2022-09-11T13:36:52.358Z,1.83
2022-09-11T13:39:25.595Z,1.80
2022-09-11T13:41:57.051Z,1.80
2022-09-11T13:44:44.445Z,2.10
2022-09-11T13:47:22.487Z,1.90
2022-09-11T13:49:55.116Z,2.10
2022-09-11T13:52:23.878Z,2.22
2022-09-11T13:54:52.314Z,2.38
2022-09-11T13:57:20.989Z,2.28
2022-09-11T13:59:49.415Z,2.30
2022-09-11T14:02:35.004Z,2.25
2022-09-11T14:05:31.390Z,2.65
2022-09-11T14:07:58.738Z,2.90
2022-09-11T14:10:31.880Z,2.85
2022-09-11T14:13:14.522Z,2.60
2022-09-11T14:15:50.381Z,2.50
2022-09-11T14:18:28.704Z,2.90
2022-09-11T14:20:56.621Z,2.80
2022-09-11T14:23:25.176Z,2.88
2022-09-11T14:26:03.751Z,2.92
2022-09-11T14:28:41.226Z,2.70
2022-09-11T14:31:09.848Z,2.50
2022-09-11T14:33:37.204Z,2.50
2022-09-11T14:36:19.109Z,2.42
2022-09-11T14:38:47.592Z,3.03
2022-09-11T14:41:14.723Z,3.13
2022-09-11T14:43:43.482Z,2.95
2022-09-11T14:46:12.842Z,2.67
2022-09-11T14:48:43.060Z,3.00
2022-09-11T14:51:13.540Z,2.55
2022-09-11T14:53:43.105Z,2.80
2022-09-11T14:56:10.426Z,2.83
2022-09-11T14:58:37.956Z,2.80
2022-09-11T15:01:05.131Z,2.60
2022-09-11T15:03:32.366Z,2.60
2022-09-11T15:06:00.093Z,3.17
2022-09-11T15:08:27.347Z,2.60
2022-09-11T15:10:54.500Z,2.60
2022-09-11T15:13:22.065Z,2.63
2022-09-11T15:15:49.297Z,2.50
2022-09-11T15:18:17.777Z,2.50
2022-09-11T15:20:46.145Z,2.50
2022-09-11T15:23:13.317Z,2.47
2022-09-11T15:25:40.981Z,2.70
2022-09-11T15:28:10.163Z,2.50
2022-09-11T15:30:38.226Z,2.80
2022-09-11T15:33:05.564Z,3.03
2022-09-11T15:35:33.187Z,2.63
2022-09-11T15:38:00.462Z,2.70
2022-09-11T15:40:27.561Z,2.97
2022-09-11T15:42:56.818Z,2.77
2022-09-11T15:45:24.242Z,3.27
2022-09-11T15:47:51.381Z,2.80
2022-09-11T15:50:24.540Z,3.13
2022-09-11T15:52:51.644Z,2.90
2022-09-11T15:55:18.783Z,2.90
2022-09-11T15:57:45.908Z,2.83
2022-09-11T16:00:14.540Z,2.87
2022-09-11T16:02:41.925Z,2.97
2022-09-11T16:05:09.185Z,2.90
2022-09-11T16:07:36.333Z,2.87
2022-09-11T16:10:03.429Z,3.07
2022-09-11T16:12:30.543Z,2.50
2022-09-11T16:14:57.718Z,2.80
2022-09-11T16:17:30.963Z,3.10
2022-09-11T16:19:58.527Z,3.00
2022-09-11T16:22:27.028Z,2.80
2022-09-11T16:24:54.229Z,2.78
2022-09-11T16:27:21.491Z,2.53
2022-09-11T16:30:20.660Z,2.60
2022-09-11T16:32:39.171Z,2.80
2022-09-11T16:35:08.254Z,2.50
2022-09-11T16:37:35.699Z,2.65
2022-09-11T16:40:03.922Z,2.65
2022-09-11T16:42:31.172Z,2.80
2022-09-11T16:44:58.295Z,2.63
2022-09-11T16:47:25.448Z,2.80
2022-09-11T16:50:08.926Z,2.75
2022-09-11T16:52:36.204Z,2.87
2022-09-11T16:55:03.427Z,2.90
2022-09-11T16:57:30.983Z,2.97
2022-09-11T16:59:58.137Z,2.73
2022-09-11T17:02:25.842Z,3.10
2022-09-11T17:04:53.094Z,2.67
2022-09-11T17:07:20.839Z,2.83
2022-09-11T17:09:48.372Z,2.80
2022-09-11T17:12:17.674Z,2.67
2022-09-11T17:14:44.794Z,2.90
2022-09-11T17:17:11.910Z,2.77
2022-09-11T17:19:38.999Z,2.50
2022-09-11T17:22:08.334Z,2.63
2022-09-11T17:24:35.568Z,2.80
2022-09-11T17:27:02.721Z,2.90
2022-09-11T17:29:29.843Z,2.87
2022-09-11T17:32:16.820Z,3.00
2022-09-11T17:34:44.148Z,2.60
2022-09-11T17:37:11.252Z,2.80
2022-09-11T17:39:38.547Z,2.83
2022-09-11T17:42:11.031Z,3.00
2022-09-11T17:44:41.343Z,2.70
2022-09-11T17:47:08.611Z,3.00
2022-09-11T17:49:35.704Z,2.90
2022-09-11T17:52:02.898Z,3.00
2022-09-11T17:54:30.093Z,2.90
2022-09-11T17:56:58.284Z,2.83
2022-09-11T17:59:25.425Z,2.80
2022-09-11T18:01:52.734Z,2.70
2022-09-11T18:04:20.654Z,2.83
2022-09-11T18:06:47.767Z,3.13
2022-09-11T18:09:17.875Z,3.00
2022-09-11T18:11:45.887Z,2.80
2022-09-11T18:14:13.824Z,2.80
2022-09-11T18:16:46.685Z,2.70
2022-09-11T18:19:14.614Z,3.30
2022-09-11T18:21:44.630Z,3.83
2022-09-11T18:24:19.762Z,3.30
2022-09-11T18:26:49.741Z,3.00
2022-09-11T18:29:19.756Z,3.20
2022-09-11T18:31:49.855Z,3.03
2022-09-11T18:34:18.439Z,3.50
2022-09-11T18:36:45.652Z,3.13
2022-09-11T18:39:13.664Z,3.20
2022-09-11T18:41:40.885Z,3.70
2022-09-11T18:44:10.883Z,3.40
2022-09-11T18:46:38.413Z,3.27
2022-09-11T18:49:05.752Z,3.20
2022-09-11T18:51:33.316Z,3.50
2022-09-11T18:54:00.834Z,3.43
2022-09-11T18:56:29.348Z,3.50
2022-09-11T18:58:56.519Z,3.47
2022-09-11T19:01:25.681Z,3.60
2022-09-11T19:03:53.382Z,3.40
2022-09-11T19:06:21.727Z,3.17
2022-09-11T19:08:49.187Z,3.30
2022-09-11T19:11:17.925Z,3.43
2022-09-11T19:13:45.831Z,3.07
2022-09-11T19:16:13.576Z,2.90
2022-09-11T19:18:41.267Z,3.43
2022-09-11T19:21:14.787Z,3.53
2022-09-11T19:23:43.654Z,3.40
2022-09-11T19:26:13.623Z,3.57
2022-09-11T19:28:41.811Z,3.73
2022-09-11T19:31:09.622Z,3.40
2022-09-11T19:33:37.583Z,3.53
2022-09-11T19:36:16.778Z,3.17
2022-09-11T19:38:45.132Z,3.50
2022-09-11T19:41:13.570Z,3.47
2022-09-11T19:43:41.543Z,3.77
2022-09-11T19:46:12.945Z,3.80
2022-09-11T19:48:40.643Z,3.60
2022-09-11T19:51:13.198Z,4.10
2022-09-11T19:53:41.604Z,4.57
2022-09-11T19:56:09.857Z,4.03
2022-09-11T19:58:38.745Z,4.10
2022-09-11T20:01:10.164Z,3.70
2022-09-11T20:03:41.802Z,3.93
2022-09-11T20:06:09.892Z,3.70
2022-09-11T20:08:37.741Z,3.93
2022-09-11T20:11:06.273Z,3.90
2022-09-11T20:13:34.937Z,3.93
2022-09-11T20:16:05.524Z,3.67
2022-09-11T20:18:33.160Z,3.80
2022-09-11T20:21:07.399Z,3.50
2022-09-11T20:23:34.739Z,3.70
2022-09-11T20:26:14.873Z,3.93
2022-09-11T20:28:44.217Z,3.67
2022-09-11T20:31:19.018Z,3.87
2022-09-11T20:33:46.599Z,4.07
2022-09-11T20:36:14.175Z,4.20
2022-09-11T20:38:41.266Z,4.20
2022-09-11T20:41:09.285Z,3.60
2022-09-11T20:43:36.463Z,4.00
2022-09-11T20:46:03.981Z,4.10
2022-09-11T20:48:31.633Z,4.20
2022-09-11T20:51:10.053Z,3.90
2022-09-11T20:53:37.793Z,3.73
2022-09-11T20:56:06.701Z,4.40
2022-09-11T20:58:34.330Z,4.10
2022-09-11T21:01:01.623Z,4.00
2022-09-11T21:03:29.177Z,3.73
2022-09-11T21:05:56.727Z,4.10
2022-09-11T21:08:25.540Z,3.70
2022-09-11T21:10:52.730Z,3.50
2022-09-11T21:13:19.937Z,3.77
2022-09-11T21:15:48.521Z,3.80
2022-09-11T21:18:15.772Z,4.70
2022-09-11T21:20:42.987Z,4.10
2022-09-11T21:23:10.186Z,4.07
2022-09-11T21:25:40.455Z,3.77
2022-09-11T21:28:07.627Z,3.60
2022-09-11T21:30:34.808Z,3.60
2022-09-11T21:33:02.521Z,3.53
2022-09-11T21:35:29.680Z,3.70
2022-09-11T21:37:56.844Z,3.60
2022-09-11T21:40:24.465Z,4.10
2022-09-11T21:42:51.602Z,3.80
2022-09-11T21:45:18.903Z,4.17
2022-09-11T21:47:46.043Z,3.83
2022-09-11T21:50:13.273Z,4.00
2022-09-11T21:52:40.593Z,3.43
2022-09-11T21:55:07.960Z,4.00
2022-09-11T21:57:35.077Z,4.27
2022-09-11T22:00:02.306Z,4.13
2022-09-11T22:02:30.052Z,3.90
2022-09-11T22:04:57.163Z,3.90
2022-09-11T22:07:24.321Z,3.60
2022-09-11T22:09:51.705Z,3.80
2022-09-11T22:12:18.881Z,4.10
2022-09-11T22:14:48.774Z,4.20
2022-09-11T22:17:16.277Z,5.10
2022-09-11T22:19:44.382Z,4.67
2022-09-11T22:22:11.528Z,4.13
2022-09-11T22:24:41.725Z,4.57
2022-09-11T22:27:09.611Z,4.83
2022-09-11T22:29:37.144Z,4.40
2022-09-11T22:32:07.749Z,4.53
2022-09-11T22:34:35.410Z,4.40
2022-09-11T22:37:02.852Z,4.07
2022-09-11T22:39:31.773Z,4.43
2022-09-11T22:42:01.968Z,4.57
2022-09-11T22:44:29.125Z,4.27
2022-09-11T22:46:56.273Z,4.40
2022-09-11T22:49:23.560Z,4.53
2022-09-11T22:51:50.760Z,4.90
2022-09-11T22:54:18.019Z,4.87
2022-09-11T22:56:45.363Z,4.60
2022-09-11T22:59:12.575Z,4.37
2022-09-11T23:01:39.860Z,4.47
2022-09-11T23:04:07.094Z,4.53
2022-09-11T23:06:52.786Z,4.57
2022-09-11T23:09:19.954Z,4.37
2022-09-11T23:11:47.228Z,4.50
2022-09-11T23:14:14.907Z,4.60
2022-09-11T23:16:42.398Z,4.50
2022-09-11T23:19:12.521Z,4.70
2022-09-11T23:21:39.643Z,4.40
2022-09-11T23:24:06.827Z,4.57
2022-09-11T23:26:34.271Z,4.47
2022-09-11T23:29:01.501Z,4.50
2022-09-11T23:31:29.844Z,4.53
2022-09-11T23:33:58.934Z,4.50
2022-09-11T23:36:26.416Z,4.27
2022-09-11T23:38:53.789Z,4.27
2022-09-11T23:41:21.451Z,4.63
2022-09-11T23:43:49.099Z,4.13
2022-09-11T23:46:16.510Z,4.57
2022-09-11T23:48:44.309Z,4.53
2022-09-11T23:51:11.688Z,4.70
2022-09-11T23:53:39.408Z,4.17
2022-09-11T23:56:10.499Z,4.37
2022-09-11T23:58:40.198Z,4.40
